PWSweather.com
Personal Weather Stations
Station Observations
KCTHAMDEN
Dunbar Hill, Hamden, CT 06514

Dunbar HillHamden, CT 06514

Lat: 41.365437, Lon: -72.956532

Elevation: 200

Station Type: Davis Vantage Pro2+

www.hamdenweather.com

High Low Average
Temperature 85.7°F29.8°C 62.4°F16.9°C 76.6°F24.8°C
Dew Point 73.0°F22.8°C 52.0°F11.1°C 63.2°F17.3°C
Winds 6.6 mph 10.6 kmh Calm Calm 2.0 mph S3.2 kmh S
Wind Gusts 14.0 mph22.5 kmh -- 4.0 mph6.4 kmh
Humidity 96% 34% 67%
Pressure 29.88 in1011.9 mb 29.68 in1005.1 mb -
Precipitation 0.02 in0.5 mm - -
Hour Temp Dew Point Humidity Winds Wind Gusts Pressure Precip Precip Rate Daily Precip Total
12:00 AM 71.1°F21.7°C 69.3°F20.7°C 94% 0.2 mph SSE0.3 kmh SSE 1.0 mph1.6 kmh 29.74 in1007.1 mb - 0.00 in0.0 mm 0.00 in0.0 mm
12:15 AM 71.2°F21.8°C 69.4°F20.8°C 94% Calm Calm -- 29.73 in1006.8 mb - 0.00 in0.0 mm 0.00 in0.0 mm
12:30 AM 71.5°F21.9°C 69.6°F20.9°C 94% Calm Calm -- 29.72 in1006.4 mb - 0.00 in0.0 mm 0.00 in0.0 mm
12:45 AM 71.8°F22.1°C 70.3°F21.3°C 95% 1.5 mph S2.4 kmh S 3.0 mph4.8 kmh 29.72 in1006.4 mb - 0.00 in0.0 mm 0.00 in0.0 mm
01:00 AM 72.3°F22.4°C 71.1°F21.7°C 96% 0.1 mph WSW0.2 kmh WSW 1.0 mph1.6 kmh 29.72 in1006.4 mb - 0.00 in0.0 mm 0.00 in0.0 mm
01:15 AM 72.7°F22.6°C 71.2°F21.8°C 95% 0.2 mph NE0.3 kmh NE 2.0 mph3.2 kmh 29.71 in1006.1 mb - 0.00 in0.0 mm 0.00 in0.0 mm
01:30 AM 73.0°F22.8°C 71.8°F22.1°C 96% Calm Calm -- 29.71 in1006.1 mb - 0.00 in0.0 mm 0.00 in0.0 mm
01:45 AM 73.4°F23.0°C 72.2°F22.3°C 96% 0.1 mph SSE0.2 kmh SSE -- 29.70 in1005.8 mb - 0.00 in0.0 mm 0.00 in0.0 mm
02:00 AM 73.7°F23.2°C 72.5°F22.5°C 96% 0.1 mph SE0.2 kmh SE 2.0 mph3.2 kmh 29.70 in1005.8 mb - 0.00 in0.0 mm 0.00 in0.0 mm
02:15 AM 73.9°F23.3°C 72.4°F22.4°C 95% 1.1 mph ESE1.8 kmh ESE 3.0 mph4.8 kmh 29.71 in1006.1 mb - 0.00 in0.0 mm 0.00 in0.0 mm
02:45 AM 74.1°F23.4°C 72.6°F22.6°C 95% 0.7 mph S1.1 kmh S 2.0 mph3.2 kmh 29.70 in1005.8 mb - 0.00 in0.0 mm 0.00 in0.0 mm
03:00 AM 74.2°F23.4°C 72.7°F22.6°C 95% 0.1 mph SE0.2 kmh SE 1.0 mph1.6 kmh 29.69 in1005.4 mb - 0.00 in0.0 mm 0.00 in0.0 mm
03:15 AM 74.3°F23.5°C 72.8°F22.7°C 95% 1.0 mph SE1.6 kmh SE 2.0 mph3.2 kmh 29.69 in1005.4 mb - 0.01 in0.3 mm 0.01 in0.3 mm
03:30 AM 74.3°F23.5°C 72.8°F22.7°C 95% 0.4 mph ESE0.6 kmh ESE 2.0 mph3.2 kmh 29.69 in1005.4 mb - 0.00 in0.0 mm 0.01 in0.3 mm
03:45 AM 74.0°F23.3°C 72.2°F22.3°C 94% Calm Calm 1.0 mph1.6 kmh 29.68 in1005.1 mb - 0.00 in0.0 mm 0.01 in0.3 mm
04:00 AM 74.0°F23.3°C 72.5°F22.5°C 95% Calm Calm -- 29.68 in1005.1 mb - 0.00 in0.0 mm 0.01 in0.3 mm
04:15 AM 73.9°F23.3°C 72.4°F22.4°C 95% 0.5 mph WNW0.8 kmh WNW 3.0 mph4.8 kmh 29.68 in1005.1 mb - 0.00 in0.0 mm 0.01 in0.3 mm
04:30 AM 73.7°F23.2°C 72.2°F22.3°C 95% 0.5 mph E0.8 kmh E 1.0 mph1.6 kmh 29.69 in1005.4 mb - 0.00 in0.0 mm 0.01 in0.3 mm
04:45 AM 73.9°F23.3°C 72.4°F22.4°C 95% 0.2 mph S0.3 kmh S 2.0 mph3.2 kmh 29.69 in1005.4 mb - 0.00 in0.0 mm 0.01 in0.3 mm
05:00 AM 74.1°F23.4°C 72.6°F22.6°C 95% 2.7 mph SW4.3 kmh SW 4.0 mph6.4 kmh 29.69 in1005.4 mb - 0.00 in0.0 mm 0.01 in0.3 mm
05:15 AM 74.1°F23.4°C 72.6°F22.6°C 95% 0.5 mph SW0.8 kmh SW -- 29.69 in1005.4 mb - 0.00 in0.0 mm 0.01 in0.3 mm
05:30 AM 74.1°F23.4°C 72.2°F22.3°C 94% 2.2 mph WSW3.5 kmh WSW 3.0 mph4.8 kmh 29.70 in1005.8 mb - 0.00 in0.0 mm 0.01 in0.3 mm
05:45 AM 74.0°F23.3°C 72.1°F22.3°C 94% Calm Calm -- 29.70 in1005.8 mb - 0.00 in0.0 mm 0.01 in0.3 mm
06:00 AM 73.8°F23.2°C 72.0°F22.2°C 94% Calm Calm -- 29.71 in1006.1 mb - 0.00 in0.0 mm 0.01 in0.3 mm
06:15 AM 73.6°F23.1°C 72.1°F22.3°C 95% Calm Calm -- 29.71 in1006.1 mb - 0.00 in0.0 mm 0.01 in0.3 mm
06:30 AM 73.5°F23.1°C 72.0°F22.2°C 95% Calm Calm -- 29.72 in1006.4 mb - 0.01 in0.3 mm 0.02 in0.5 mm
06:45 AM 73.6°F23.1°C 72.1°F22.3°C 95% Calm Calm -- 29.73 in1006.8 mb - 0.00 in0.0 mm 0.02 in0.5 mm
07:00 AM 73.9°F23.3°C 72.7°F22.6°C 96% 0.1 mph NNE0.2 kmh NNE 1.0 mph1.6 kmh 29.73 in1006.8 mb - 0.00 in0.0 mm 0.02 in0.5 mm
07:15 AM 74.2°F23.4°C 72.7°F22.6°C 95% Calm Calm -- 29.74 in1007.1 mb - 0.00 in0.0 mm 0.02 in0.5 mm
07:30 AM 74.5°F23.6°C 73.0°F22.8°C 95% Calm Calm -- 29.75 in1007.5 mb - 0.00 in0.0 mm 0.02 in0.5 mm
07:45 AM 74.9°F23.8°C 72.7°F22.6°C 93% Calm Calm 1.0 mph1.6 kmh 29.75 in1007.5 mb - 0.00 in0.0 mm 0.02 in0.5 mm
08:00 AM 75.0°F23.9°C 72.2°F22.3°C 91% 0.1 mph WSW0.2 kmh WSW -- 29.75 in1007.5 mb - 0.00 in0.0 mm 0.02 in0.5 mm
08:15 AM 74.9°F23.8°C 71.8°F22.1°C 90% 2.2 mph N3.5 kmh N 12.0 mph19.3 kmh 29.76 in1007.8 mb - 0.00 in0.0 mm 0.02 in0.5 mm
08:30 AM 75.1°F23.9°C 70.3°F21.3°C 85% 5.0 mph N8.0 kmh N 7.0 mph11.3 kmh 29.76 in1007.8 mb - 0.00 in0.0 mm 0.02 in0.5 mm
08:45 AM 77.4°F25.2°C 71.2°F21.8°C 81% 2.2 mph SE3.5 kmh SE 10.0 mph16.1 kmh 29.76 in1007.8 mb - 0.00 in0.0 mm 0.02 in0.5 mm
09:00 AM 78.5°F25.8°C 70.3°F21.3°C 76% 5.4 mph N8.7 kmh N 10.0 mph16.1 kmh 29.77 in1008.1 mb - 0.00 in0.0 mm 0.02 in0.5 mm
09:15 AM 79.4°F26.3°C 69.2°F20.7°C 71% 5.7 mph NW9.2 kmh NW 9.0 mph14.5 kmh 29.77 in1008.1 mb - 0.00 in0.0 mm 0.02 in0.5 mm
09:30 AM 79.5°F26.4°C 69.3°F20.7°C 71% 2.7 mph WSW4.3 kmh WSW 4.0 mph6.4 kmh 29.77 in1008.1 mb - 0.00 in0.0 mm 0.02 in0.5 mm
09:45 AM 80.2°F26.8°C 69.9°F21.1°C 71% 4.3 mph NE6.9 kmh NE 8.0 mph12.9 kmh 29.77 in1008.1 mb - 0.00 in0.0 mm 0.02 in0.5 mm
10:00 AM 81.1°F27.3°C 67.8°F19.9°C 64% 4.6 mph NE7.4 kmh NE 11.0 mph17.7 kmh 29.77 in1008.1 mb - 0.00 in0.0 mm 0.02 in0.5 mm
10:15 AM 80.8°F27.1°C 66.1°F18.9°C 61% 2.9 mph SW4.7 kmh SW 6.0 mph9.7 kmh 29.77 in1008.1 mb - 0.00 in0.0 mm 0.02 in0.5 mm
10:30 AM 80.8°F27.1°C 67.5°F19.7°C 64% 4.4 mph N7.1 kmh N 10.0 mph16.1 kmh 29.77 in1008.1 mb - 0.00 in0.0 mm 0.02 in0.5 mm
10:45 AM 81.1°F27.3°C 66.9°F19.4°C 62% 6.6 mph E10.6 kmh E 13.0 mph20.9 kmh 29.78 in1008.5 mb - 0.00 in0.0 mm 0.02 in0.5 mm
11:00 AM 81.2°F27.3°C 66.0°F18.9°C 60% 5.1 mph E8.2 kmh E 12.0 mph19.3 kmh 29.77 in1008.1 mb - 0.00 in0.0 mm 0.02 in0.5 mm
11:15 AM 81.9°F27.7°C 64.1°F17.8°C 55% 6.2 mph E10.0 kmh E 10.0 mph16.1 kmh 29.78 in1008.5 mb - 0.00 in0.0 mm 0.02 in0.5 mm
11:30 AM 82.4°F28.0°C 62.4°F16.9°C 51% 5.9 mph E9.5 kmh E 12.0 mph19.3 kmh 29.78 in1008.5 mb - 0.00 in0.0 mm 0.02 in0.5 mm
11:45 AM 82.5°F28.1°C 60.8°F16.0°C 48% 6.2 mph NE10.0 kmh NE 9.0 mph14.5 kmh 29.78 in1008.5 mb - 0.00 in0.0 mm 0.02 in0.5 mm
12:00 PM 83.0°F28.3°C 62.4°F16.9°C 50% 1.6 mph E2.6 kmh E 3.0 mph4.8 kmh 29.78 in1008.5 mb - 0.00 in0.0 mm 0.02 in0.5 mm
12:15 PM 83.2°F28.4°C 62.1°F16.7°C 49% 3.2 mph E5.1 kmh E 14.0 mph22.5 kmh 29.78 in1008.5 mb - 0.00 in0.0 mm 0.02 in0.5 mm
12:30 PM 82.7°F28.2°C 61.6°F16.4°C 49% 1.8 mph NE2.9 kmh NE 3.0 mph4.8 kmh 29.78 in1008.5 mb - 0.00 in0.0 mm 0.02 in0.5 mm
12:45 PM 82.9°F28.3°C 60.6°F15.9°C 47% 3.3 mph NE5.3 kmh NE 5.0 mph8.0 kmh 29.78 in1008.5 mb - 0.00 in0.0 mm 0.02 in0.5 mm
01:00 PM 83.6°F28.7°C 58.1°F14.5°C 42% 3.3 mph NNE5.3 kmh NNE 8.0 mph12.9 kmh 29.78 in1008.5 mb - 0.00 in0.0 mm 0.02 in0.5 mm
01:15 PM 83.7°F28.7°C 60.7°F15.9°C 46% 3.7 mph NE6.0 kmh NE 8.0 mph12.9 kmh 29.78 in1008.5 mb - 0.00 in0.0 mm 0.02 in0.5 mm
01:30 PM 84.4°F29.1°C 57.5°F14.2°C 40% 3.1 mph E5.0 kmh E 4.0 mph6.4 kmh 29.78 in1008.5 mb - 0.00 in0.0 mm 0.02 in0.5 mm
01:45 PM 84.5°F29.2°C 56.1°F13.4°C 38% 2.3 mph NE3.7 kmh NE 4.0 mph6.4 kmh 29.78 in1008.5 mb - 0.00 in0.0 mm 0.02 in0.5 mm
02:00 PM 84.5°F29.2°C 56.8°F13.8°C 39% 4.2 mph N6.8 kmh N 12.0 mph19.3 kmh 29.78 in1008.5 mb - 0.00 in0.0 mm 0.02 in0.5 mm
02:15 PM 84.8°F29.3°C 60.5°F15.8°C 44% 3.0 mph SW4.8 kmh SW 6.0 mph9.7 kmh 29.78 in1008.5 mb - 0.00 in0.0 mm 0.02 in0.5 mm
02:30 PM 85.0°F29.4°C 55.8°F13.2°C 37% 2.5 mph SW4.0 kmh SW 8.0 mph12.9 kmh 29.78 in1008.5 mb - 0.00 in0.0 mm 0.02 in0.5 mm
02:45 PM 85.3°F29.6°C 54.5°F12.5°C 35% 2.1 mph NNE3.4 kmh NNE 3.0 mph4.8 kmh 29.78 in1008.5 mb - 0.00 in0.0 mm 0.02 in0.5 mm
03:00 PM 85.7°F29.8°C 56.4°F13.6°C 37% 3.3 mph SW5.3 kmh SW 6.0 mph9.7 kmh 29.78 in1008.5 mb - 0.00 in0.0 mm 0.02 in0.5 mm
03:15 PM 85.7°F29.8°C 57.1°F13.9°C 38% 5.3 mph NE8.5 kmh NE 8.0 mph12.9 kmh 29.78 in1008.5 mb - 0.00 in0.0 mm 0.02 in0.5 mm
03:30 PM 85.6°F29.8°C 54.0°F12.2°C 34% 3.2 mph ENE5.1 kmh ENE 6.0 mph9.7 kmh 29.78 in1008.5 mb - 0.00 in0.0 mm 0.02 in0.5 mm
03:45 PM 85.2°F29.6°C 55.2°F12.9°C 36% 5.7 mph W9.2 kmh W 8.0 mph12.9 kmh 29.78 in1008.5 mb - 0.00 in0.0 mm 0.02 in0.5 mm
04:00 PM 85.1°F29.5°C 56.6°F13.7°C 38% 3.0 mph NNE4.8 kmh NNE 4.0 mph6.4 kmh 29.78 in1008.5 mb - 0.00 in0.0 mm 0.02 in0.5 mm
04:15 PM 85.5°F29.7°C 57.0°F13.9°C 38% 3.7 mph NE6.0 kmh NE 4.0 mph6.4 kmh 29.78 in1008.5 mb - 0.00 in0.0 mm 0.02 in0.5 mm
04:30 PM 85.0°F29.4°C 58.0°F14.4°C 40% 5.5 mph NNE8.9 kmh NNE 10.0 mph16.1 kmh 29.78 in1008.5 mb - 0.00 in0.0 mm 0.02 in0.5 mm
04:45 PM 85.2°F29.6°C 58.1°F14.5°C 40% 2.1 mph S3.4 kmh S 4.0 mph6.4 kmh 29.78 in1008.5 mb - 0.00 in0.0 mm 0.02 in0.5 mm
05:00 PM 85.0°F29.4°C 59.3°F15.2°C 42% 3.2 mph NE5.1 kmh NE 8.0 mph12.9 kmh 29.78 in1008.5 mb - 0.00 in0.0 mm 0.02 in0.5 mm
05:15 PM 84.5°F29.2°C 57.5°F14.2°C 40% 4.7 mph W7.6 kmh W 8.0 mph12.9 kmh 29.79 in1008.8 mb - 0.00 in0.0 mm 0.02 in0.5 mm
05:30 PM 84.2°F29.0°C 57.9°F14.4°C 41% 2.9 mph ENE4.7 kmh ENE 3.0 mph4.8 kmh 29.79 in1008.8 mb - 0.00 in0.0 mm 0.02 in0.5 mm
05:45 PM 84.1°F28.9°C 58.5°F14.7°C 42% 1.3 mph N2.1 kmh N 7.0 mph11.3 kmh 29.79 in1008.8 mb - 0.00 in0.0 mm 0.02 in0.5 mm
06:00 PM 83.7°F28.7°C 58.1°F14.5°C 42% 2.9 mph SSW4.7 kmh SSW 4.0 mph6.4 kmh 29.79 in1008.8 mb - 0.00 in0.0 mm 0.02 in0.5 mm
06:15 PM 83.4°F28.6°C 58.5°F14.7°C 43% 1.9 mph WSW3.1 kmh WSW 3.0 mph4.8 kmh 29.80 in1009.1 mb - 0.00 in0.0 mm 0.02 in0.5 mm
06:30 PM 82.1°F27.8°C 57.3°F14.1°C 43% 1.9 mph N3.1 kmh N 2.0 mph3.2 kmh 29.80 in1009.1 mb - 0.00 in0.0 mm 0.02 in0.5 mm
06:45 PM 80.7°F27.1°C 58.0°F14.4°C 46% 1.8 mph N2.9 kmh N 5.0 mph8.0 kmh 29.80 in1009.1 mb - 0.00 in0.0 mm 0.02 in0.5 mm
07:00 PM 79.4°F26.3°C 58.6°F14.8°C 49% 1.9 mph SW3.1 kmh SW 2.0 mph3.2 kmh 29.80 in1009.1 mb - 0.00 in0.0 mm 0.02 in0.5 mm
07:15 PM 78.2°F25.7°C 58.1°F14.5°C 50% 0.7 mph N1.1 kmh N 2.0 mph3.2 kmh 29.80 in1009.1 mb - 0.00 in0.0 mm 0.02 in0.5 mm
07:30 PM 77.3°F25.2°C 58.3°F14.6°C 52% 1.6 mph WSW2.6 kmh WSW 2.0 mph3.2 kmh 29.81 in1009.5 mb - 0.00 in0.0 mm 0.02 in0.5 mm
07:45 PM 76.1°F24.5°C 56.7°F13.7°C 51% 0.3 mph WSW0.5 kmh WSW 1.0 mph1.6 kmh 29.81 in1009.5 mb - 0.00 in0.0 mm 0.02 in0.5 mm
08:00 PM 75.0°F23.9°C 56.7°F13.7°C 53% Calm Calm -- 29.82 in1009.8 mb - 0.00 in0.0 mm 0.02 in0.5 mm
08:15 PM 73.5°F23.1°C 57.3°F14.1°C 57% Calm Calm -- 29.82 in1009.8 mb - 0.00 in0.0 mm 0.02 in0.5 mm
08:30 PM 72.2°F22.3°C 57.6°F14.2°C 60% Calm Calm -- 29.82 in1009.8 mb - 0.00 in0.0 mm 0.02 in0.5 mm
08:45 PM 71.0°F21.7°C 58.2°F14.6°C 64% Calm Calm -- 29.84 in1010.5 mb - 0.00 in0.0 mm 0.02 in0.5 mm
09:00 PM 69.8°F21.0°C 57.9°F14.4°C 66% 1.3 mph WSW2.1 kmh WSW 2.0 mph3.2 kmh 29.84 in1010.5 mb - 0.00 in0.0 mm 0.02 in0.5 mm
09:15 PM 68.8°F20.4°C 57.8°F14.3°C 68% Calm Calm -- 29.85 in1010.8 mb - 0.00 in0.0 mm 0.02 in0.5 mm
09:30 PM 68.1°F20.1°C 57.5°F14.2°C 69% 1.4 mph WSW2.3 kmh WSW 2.0 mph3.2 kmh 29.86 in1011.2 mb - 0.00 in0.0 mm 0.02 in0.5 mm
09:45 PM 67.6°F19.8°C 56.7°F13.7°C 68% 0.8 mph WSW1.3 kmh WSW 2.0 mph3.2 kmh 29.86 in1011.2 mb - 0.00 in0.0 mm 0.02 in0.5 mm
10:00 PM 67.0°F19.4°C 56.5°F13.6°C 69% Calm Calm -- 29.87 in1011.5 mb - 0.00 in0.0 mm 0.02 in0.5 mm
10:15 PM 66.5°F19.2°C 56.0°F13.3°C 69% Calm Calm -- 29.87 in1011.5 mb - 0.00 in0.0 mm 0.02 in0.5 mm
10:30 PM 65.8°F18.8°C 55.0°F12.8°C 68% Calm Calm -- 29.87 in1011.5 mb - 0.00 in0.0 mm 0.02 in0.5 mm
10:45 PM 65.2°F18.4°C 54.8°F12.7°C 69% 0.9 mph WSW1.4 kmh WSW 2.0 mph3.2 kmh 29.87 in1011.5 mb - 0.00 in0.0 mm 0.02 in0.5 mm
11:00 PM 64.7°F18.2°C 54.7°F12.6°C 70% Calm Calm 1.0 mph1.6 kmh 29.87 in1011.5 mb - 0.00 in0.0 mm 0.02 in0.5 mm
11:15 PM 64.5°F18.1°C 54.5°F12.5°C 70% Calm Calm -- 29.87 in1011.5 mb - 0.00 in0.0 mm 0.02 in0.5 mm
11:30 PM 64.2°F17.9°C 54.2°F12.3°C 70% Calm Calm -- 29.87 in1011.5 mb - 0.00 in0.0 mm 0.02 in0.5 mm
11:45 PM 63.6°F17.6°C 54.0°F12.2°C 71% Calm Calm -- 29.88 in1011.9 mb - 0.00 in0.0 mm 0.02 in0.5 mm